sensor_id;sensor_type;location;lat;lon;timestamp;P1;durP1;ratioP1;P2;durP2;ratioP2
15643;SDS011;7921;43.586;1.408;2024-02-26T00:02:14;7.40;;;2.10;;
15643;SDS011;7921;43.586;1.408;2024-02-26T00:04:39;4.13;;;1.93;;
15643;SDS011;7921;43.586;1.408;2024-02-26T00:07:05;4.10;;;2.37;;
15643;SDS011;7921;43.586;1.408;2024-02-26T00:09:30;5.57;;;2.87;;
15643;SDS011;7921;43.586;1.408;2024-02-26T00:11:56;5.23;;;2.17;;
15643;SDS011;7921;43.586;1.408;2024-02-26T00:14:21;3.77;;;2.17;;
15643;SDS011;7921;43.586;1.408;2024-02-26T00:16:46;3.90;;;2.17;;
15643;SDS011;7921;43.586;1.408;2024-02-26T00:19:12;4.73;;;2.27;;
15643;SDS011;7921;43.586;1.408;2024-02-26T00:21:40;5.13;;;2.10;;
15643;SDS011;7921;43.586;1.408;2024-02-26T00:24:07;4.93;;;2.00;;
15643;SDS011;7921;43.586;1.408;2024-02-26T00:26:32;5.80;;;2.30;;
15643;SDS011;7921;43.586;1.408;2024-02-26T00:28:57;3.57;;;2.40;;
15643;SDS011;7921;43.586;1.408;2024-02-26T00:31:23;6.37;;;1.83;;
15643;SDS011;7921;43.586;1.408;2024-02-26T00:33:48;4.83;;;2.03;;
15643;SDS011;7921;43.586;1.408;2024-02-26T00:36:13;3.77;;;2.23;;
15643;SDS011;7921;43.586;1.408;2024-02-26T00:38:39;4.30;;;2.00;;
15643;SDS011;7921;43.586;1.408;2024-02-26T00:41:05;7.00;;;2.00;;
15643;SDS011;7921;43.586;1.408;2024-02-26T00:43:30;6.40;;;2.17;;
15643;SDS011;7921;43.586;1.408;2024-02-26T00:45:56;3.73;;;1.93;;
15643;SDS011;7921;43.586;1.408;2024-02-26T00:48:21;6.90;;;2.23;;
15643;SDS011;7921;43.586;1.408;2024-02-26T00:50:47;6.80;;;2.60;;
15643;SDS011;7921;43.586;1.408;2024-02-26T00:53:12;6.27;;;2.17;;
15643;SDS011;7921;43.586;1.408;2024-02-26T00:55:37;9.67;;;2.73;;
15643;SDS011;7921;43.586;1.408;2024-02-26T00:58:03;7.70;;;2.30;;
15643;SDS011;7921;43.586;1.408;2024-02-26T01:00:28;5.93;;;2.00;;
15643;SDS011;7921;43.586;1.408;2024-02-26T01:02:54;5.40;;;1.90;;
15643;SDS011;7921;43.586;1.408;2024-02-26T01:05:19;6.07;;;2.17;;
15643;SDS011;7921;43.586;1.408;2024-02-26T01:07:44;5.60;;;2.50;;
15643;SDS011;7921;43.586;1.408;2024-02-26T01:10:10;5.07;;;3.00;;
15643;SDS011;7921;43.586;1.408;2024-02-26T01:12:35;8.00;;;2.23;;
15643;SDS011;7921;43.586;1.408;2024-02-26T01:15:01;5.57;;;2.30;;
15643;SDS011;7921;43.586;1.408;2024-02-26T01:17:28;5.57;;;2.80;;
15643;SDS011;7921;43.586;1.408;2024-02-26T01:19:53;3.60;;;1.70;;
15643;SDS011;7921;43.586;1.408;2024-02-26T01:22:19;3.20;;;2.00;;
15643;SDS011;7921;43.586;1.408;2024-02-26T01:24:44;4.87;;;2.40;;
15643;SDS011;7921;43.586;1.408;2024-02-26T01:27:10;5.93;;;1.87;;
15643;SDS011;7921;43.586;1.408;2024-02-26T01:29:35;4.97;;;2.13;;
15643;SDS011;7921;43.586;1.408;2024-02-26T01:32:01;4.67;;;1.90;;
15643;SDS011;7921;43.586;1.408;2024-02-26T01:34:26;4.23;;;1.70;;
15643;SDS011;7921;43.586;1.408;2024-02-26T01:36:52;6.17;;;2.40;;
15643;SDS011;7921;43.586;1.408;2024-02-26T01:39:17;5.37;;;2.03;;
15643;SDS011;7921;43.586;1.408;2024-02-26T01:41:43;4.43;;;1.80;;
15643;SDS011;7921;43.586;1.408;2024-02-26T01:44:08;4.23;;;1.80;;
15643;SDS011;7921;43.586;1.408;2024-02-26T01:46:37;6.60;;;2.17;;
15643;SDS011;7921;43.586;1.408;2024-02-26T01:49:02;5.57;;;2.00;;
15643;SDS011;7921;43.586;1.408;2024-02-26T01:51:28;5.87;;;1.97;;
15643;SDS011;7921;43.586;1.408;2024-02-26T01:53:54;7.87;;;2.57;;
15643;SDS011;7921;43.586;1.408;2024-02-26T01:56:20;6.07;;;2.23;;
15643;SDS011;7921;43.586;1.408;2024-02-26T01:58:46;5.90;;;1.90;;
15643;SDS011;7921;43.586;1.408;2024-02-26T02:01:12;6.80;;;2.07;;
15643;SDS011;7921;43.586;1.408;2024-02-26T02:03:38;4.17;;;1.80;;
15643;SDS011;7921;43.586;1.408;2024-02-26T02:06:03;2.83;;;1.80;;
15643;SDS011;7921;43.586;1.408;2024-02-26T02:08:29;4.07;;;1.50;;
15643;SDS011;7921;43.586;1.408;2024-02-26T02:10:54;3.27;;;1.60;;
15643;SDS011;7921;43.586;1.408;2024-02-26T02:13:20;5.23;;;2.00;;
15643;SDS011;7921;43.586;1.408;2024-02-26T02:15:45;5.10;;;2.87;;
15643;SDS011;7921;43.586;1.408;2024-02-26T02:18:11;4.67;;;1.97;;
15643;SDS011;7921;43.586;1.408;2024-02-26T02:20:36;5.97;;;2.00;;
15643;SDS011;7921;43.586;1.408;2024-02-26T02:23:02;4.23;;;2.27;;
15643;SDS011;7921;43.586;1.408;2024-02-26T02:25:28;4.67;;;1.90;;
15643;SDS011;7921;43.586;1.408;2024-02-26T02:27:53;4.57;;;2.00;;
15643;SDS011;7921;43.586;1.408;2024-02-26T02:30:20;5.23;;;2.30;;
15643;SDS011;7921;43.586;1.408;2024-02-26T02:32:46;6.20;;;2.60;;
15643;SDS011;7921;43.586;1.408;2024-02-26T02:35:11;5.20;;;2.23;;
15643;SDS011;7921;43.586;1.408;2024-02-26T02:37:37;4.30;;;1.67;;
15643;SDS011;7921;43.586;1.408;2024-02-26T02:40:02;8.33;;;2.43;;
15643;SDS011;7921;43.586;1.408;2024-02-26T02:42:28;7.33;;;3.10;;
15643;SDS011;7921;43.586;1.408;2024-02-26T02:44:53;4.47;;;1.93;;
15643;SDS011;7921;43.586;1.408;2024-02-26T02:47:19;5.03;;;1.90;;
15643;SDS011;7921;43.586;1.408;2024-02-26T02:49:44;6.93;;;2.40;;
15643;SDS011;7921;43.586;1.408;2024-02-26T02:52:09;5.93;;;2.13;;
15643;SDS011;7921;43.586;1.408;2024-02-26T02:54:35;6.57;;;1.90;;
15643;SDS011;7921;43.586;1.408;2024-02-26T02:57:02;4.10;;;1.70;;
15643;SDS011;7921;43.586;1.408;2024-02-26T02:59:28;5.50;;;1.93;;
15643;SDS011;7921;43.586;1.408;2024-02-26T03:01:53;4.90;;;1.80;;
15643;SDS011;7921;43.586;1.408;2024-02-26T03:04:18;5.23;;;1.77;;
15643;SDS011;7921;43.586;1.408;2024-02-26T03:06:44;4.47;;;2.17;;
15643;SDS011;7921;43.586;1.408;2024-02-26T03:09:09;5.50;;;2.07;;
15643;SDS011;7921;43.586;1.408;2024-02-26T03:11:34;5.33;;;1.63;;
15643;SDS011;7921;43.586;1.408;2024-02-26T03:14:00;4.07;;;1.77;;
15643;SDS011;7921;43.586;1.408;2024-02-26T03:16:25;4.47;;;1.73;;
15643;SDS011;7921;43.586;1.408;2024-02-26T03:18:51;6.90;;;1.97;;
15643;SDS011;7921;43.586;1.408;2024-02-26T03:21:16;4.63;;;1.83;;
15643;SDS011;7921;43.586;1.408;2024-02-26T03:23:42;2.87;;;1.37;;
15643;SDS011;7921;43.586;1.408;2024-02-26T03:26:07;4.43;;;1.60;;
15643;SDS011;7921;43.586;1.408;2024-02-26T03:28:33;4.50;;;1.67;;
15643;SDS011;7921;43.586;1.408;2024-02-26T03:30:59;2.73;;;1.67;;
15643;SDS011;7921;43.586;1.408;2024-02-26T03:33:25;4.07;;;1.80;;
15643;SDS011;7921;43.586;1.408;2024-02-26T03:35:51;4.67;;;1.60;;
15643;SDS011;7921;43.586;1.408;2024-02-26T03:38:16;5.67;;;2.50;;
15643;SDS011;7921;43.586;1.408;2024-02-26T03:40:41;5.90;;;1.87;;
15643;SDS011;7921;43.586;1.408;2024-02-26T03:43:07;5.40;;;1.73;;
15643;SDS011;7921;43.586;1.408;2024-02-26T03:45:33;4.13;;;1.33;;
15643;SDS011;7921;43.586;1.408;2024-02-26T03:47:58;3.63;;;1.23;;
15643;SDS011;7921;43.586;1.408;2024-02-26T03:50:24;2.87;;;1.50;;
15643;SDS011;7921;43.586;1.408;2024-02-26T03:52:49;3.10;;;1.40;;
15643;SDS011;7921;43.586;1.408;2024-02-26T03:55:15;5.07;;;1.17;;
15643;SDS011;7921;43.586;1.408;2024-02-26T03:57:40;3.63;;;1.30;;
15643;SDS011;7921;43.586;1.408;2024-02-26T04:00:06;4.43;;;1.70;;
15643;SDS011;7921;43.586;1.408;2024-02-26T04:02:31;3.23;;;1.50;;
15643;SDS011;7921;43.586;1.408;2024-02-26T04:04:57;2.93;;;1.37;;
15643;SDS011;7921;43.586;1.408;2024-02-26T04:07:24;2.37;;;1.00;;
15643;SDS011;7921;43.586;1.408;2024-02-26T04:09:49;3.27;;;1.37;;
15643;SDS011;7921;43.586;1.408;2024-02-26T04:12:14;3.73;;;1.40;;
15643;SDS011;7921;43.586;1.408;2024-02-26T04:14:40;3.20;;;1.10;;
15643;SDS011;7921;43.586;1.408;2024-02-26T04:17:05;3.33;;;1.77;;
15643;SDS011;7921;43.586;1.408;2024-02-26T04:19:31;3.33;;;1.10;;
15643;SDS011;7921;43.586;1.408;2024-02-26T04:21:56;3.27;;;1.30;;
15643;SDS011;7921;43.586;1.408;2024-02-26T04:24:21;3.47;;;1.63;;
15643;SDS011;7921;43.586;1.408;2024-02-26T04:26:47;2.43;;;1.10;;
15643;SDS011;7921;43.586;1.408;2024-02-26T04:29:14;2.03;;;1.10;;
15643;SDS011;7921;43.586;1.408;2024-02-26T04:31:40;3.10;;;1.40;;
15643;SDS011;7921;43.586;1.408;2024-02-26T04:34:07;3.93;;;1.37;;
15643;SDS011;7921;43.586;1.408;2024-02-26T04:36:33;3.90;;;1.30;;
15643;SDS011;7921;43.586;1.408;2024-02-26T04:38:58;4.37;;;1.50;;
15643;SDS011;7921;43.586;1.408;2024-02-26T04:41:23;2.23;;;1.07;;
15643;SDS011;7921;43.586;1.408;2024-02-26T04:43:49;2.93;;;1.37;;
15643;SDS011;7921;43.586;1.408;2024-02-26T04:46:14;2.67;;;1.30;;
15643;SDS011;7921;43.586;1.408;2024-02-26T04:48:39;2.90;;;1.00;;
15643;SDS011;7921;43.586;1.408;2024-02-26T04:51:06;3.23;;;1.20;;
15643;SDS011;7921;43.586;1.408;2024-02-26T04:53:32;6.20;;;1.30;;
15643;SDS011;7921;43.586;1.408;2024-02-26T04:55:57;3.20;;;1.00;;
15643;SDS011;7921;43.586;1.408;2024-02-26T04:58:22;1.73;;;0.73;;
15643;SDS011;7921;43.586;1.408;2024-02-26T05:00:48;1.67;;;0.90;;
15643;SDS011;7921;43.586;1.408;2024-02-26T05:03:13;2.27;;;1.30;;
15643;SDS011;7921;43.586;1.408;2024-02-26T05:05:40;3.40;;;1.03;;
15643;SDS011;7921;43.586;1.408;2024-02-26T05:08:06;1.43;;;0.80;;
15643;SDS011;7921;43.586;1.408;2024-02-26T05:10:32;1.60;;;0.90;;
15643;SDS011;7921;43.586;1.408;2024-02-26T05:12:58;2.47;;;1.07;;
15643;SDS011;7921;43.586;1.408;2024-02-26T05:15:23;1.90;;;0.90;;
15643;SDS011;7921;43.586;1.408;2024-02-26T05:17:48;1.47;;;0.83;;
15643;SDS011;7921;43.586;1.408;2024-02-26T05:20:14;3.83;;;1.07;;
15643;SDS011;7921;43.586;1.408;2024-02-26T05:22:39;3.67;;;1.00;;
15643;SDS011;7921;43.586;1.408;2024-02-26T05:25:05;3.43;;;1.10;;
15643;SDS011;7921;43.586;1.408;2024-02-26T05:27:30;3.80;;;1.10;;
15643;SDS011;7921;43.586;1.408;2024-02-26T05:29:55;2.30;;;1.00;;
15643;SDS011;7921;43.586;1.408;2024-02-26T05:32:21;1.47;;;1.00;;
15643;SDS011;7921;43.586;1.408;2024-02-26T05:34:46;2.40;;;1.00;;
15643;SDS011;7921;43.586;1.408;2024-02-26T05:37:12;3.53;;;1.10;;
15643;SDS011;7921;43.586;1.408;2024-02-26T05:39:37;2.07;;;1.20;;
15643;SDS011;7921;43.586;1.408;2024-02-26T05:42:03;2.20;;;1.23;;
15643;SDS011;7921;43.586;1.408;2024-02-26T05:44:29;2.23;;;0.90;;
15643;SDS011;7921;43.586;1.408;2024-02-26T05:46:54;1.93;;;0.97;;
15643;SDS011;7921;43.586;1.408;2024-02-26T05:49:20;1.37;;;1.00;;
15643;SDS011;7921;43.586;1.408;2024-02-26T05:51:46;1.10;;;0.60;;
15643;SDS011;7921;43.586;1.408;2024-02-26T05:54:11;1.47;;;0.87;;
15643;SDS011;7921;43.586;1.408;2024-02-26T05:56:37;2.60;;;1.03;;
15643;SDS011;7921;43.586;1.408;2024-02-26T05:59:02;2.50;;;1.63;;
15643;SDS011;7921;43.586;1.408;2024-02-26T06:01:28;1.97;;;0.97;;
15643;SDS011;7921;43.586;1.408;2024-02-26T06:03:53;2.20;;;1.00;;
15643;SDS011;7921;43.586;1.408;2024-02-26T06:06:18;1.63;;;0.97;;
15643;SDS011;7921;43.586;1.408;2024-02-26T06:08:44;2.27;;;0.67;;
15643;SDS011;7921;43.586;1.408;2024-02-26T06:11:09;1.57;;;1.17;;
15643;SDS011;7921;43.586;1.408;2024-02-26T06:13:35;2.20;;;0.90;;
15643;SDS011;7921;43.586;1.408;2024-02-26T06:16:00;2.03;;;0.90;;
15643;SDS011;7921;43.586;1.408;2024-02-26T06:18:26;1.47;;;0.70;;
15643;SDS011;7921;43.586;1.408;2024-02-26T06:20:51;1.03;;;0.80;;
15643;SDS011;7921;43.586;1.408;2024-02-26T06:23:16;1.80;;;0.90;;
15643;SDS011;7921;43.586;1.408;2024-02-26T06:25:42;2.57;;;1.53;;
15643;SDS011;7921;43.586;1.408;2024-02-26T06:28:12;2.23;;;0.90;;
15643;SDS011;7921;43.586;1.408;2024-02-26T06:30:38;1.97;;;0.80;;
15643;SDS011;7921;43.586;1.408;2024-02-26T06:33:03;0.87;;;0.80;;
15643;SDS011;7921;43.586;1.408;2024-02-26T06:35:29;1.20;;;0.77;;
15643;SDS011;7921;43.586;1.408;2024-02-26T06:37:54;1.63;;;0.80;;
15643;SDS011;7921;43.586;1.408;2024-02-26T06:40:20;2.20;;;0.87;;
15643;SDS011;7921;43.586;1.408;2024-02-26T06:42:45;1.00;;;0.70;;
15643;SDS011;7921;43.586;1.408;2024-02-26T06:45:10;1.13;;;0.73;;
15643;SDS011;7921;43.586;1.408;2024-02-26T06:47:36;1.57;;;0.60;;
15643;SDS011;7921;43.586;1.408;2024-02-26T06:50:01;1.73;;;1.00;;
15643;SDS011;7921;43.586;1.408;2024-02-26T06:52:27;1.13;;;1.03;;
15643;SDS011;7921;43.586;1.408;2024-02-26T06:54:53;0.90;;;0.70;;
15643;SDS011;7921;43.586;1.408;2024-02-26T06:57:21;0.93;;;0.70;;
15643;SDS011;7921;43.586;1.408;2024-02-26T06:59:46;1.37;;;1.03;;
15643;SDS011;7921;43.586;1.408;2024-02-26T07:02:12;1.93;;;1.37;;
15643;SDS011;7921;43.586;1.408;2024-02-26T07:04:38;1.07;;;0.90;;
15643;SDS011;7921;43.586;1.408;2024-02-26T07:07:04;3.10;;;0.90;;
15643;SDS011;7921;43.586;1.408;2024-02-26T07:09:29;3.07;;;0.80;;
15643;SDS011;7921;43.586;1.408;2024-02-26T07:11:54;2.27;;;0.83;;
15643;SDS011;7921;43.586;1.408;2024-02-26T07:14:20;0.87;;;0.70;;
15643;SDS011;7921;43.586;1.408;2024-02-26T07:16:45;1.27;;;0.70;;
15643;SDS011;7921;43.586;1.408;2024-02-26T07:19:11;1.27;;;0.60;;
15643;SDS011;7921;43.586;1.408;2024-02-26T07:21:36;3.50;;;1.13;;
15643;SDS011;7921;43.586;1.408;2024-02-26T07:24:02;1.17;;;0.77;;
15643;SDS011;7921;43.586;1.408;2024-02-26T07:26:27;2.20;;;1.03;;
15643;SDS011;7921;43.586;1.408;2024-02-26T07:28:54;1.40;;;0.90;;
15643;SDS011;7921;43.586;1.408;2024-02-26T07:31:20;1.65;;;0.98;;
15643;SDS011;7921;43.586;1.408;2024-02-26T07:33:45;1.80;;;0.80;;
15643;SDS011;7921;43.586;1.408;2024-02-26T07:36:11;1.23;;;0.93;;
15643;SDS011;7921;43.586;1.408;2024-02-26T07:38:36;1.53;;;1.00;;
15643;SDS011;7921;43.586;1.408;2024-02-26T07:41:02;1.27;;;0.90;;
15643;SDS011;7921;43.586;1.408;2024-02-26T07:43:28;0.83;;;0.80;;
15643;SDS011;7921;43.586;1.408;2024-02-26T07:45:53;1.30;;;1.07;;
15643;SDS011;7921;43.586;1.408;2024-02-26T07:48:19;0.80;;;0.70;;
15643;SDS011;7921;43.586;1.408;2024-02-26T07:50:44;2.27;;;0.67;;
15643;SDS011;7921;43.586;1.408;2024-02-26T07:53:09;2.63;;;0.80;;
15643;SDS011;7921;43.586;1.408;2024-02-26T07:55:35;2.43;;;1.10;;
15643;SDS011;7921;43.586;1.408;2024-02-26T07:58:00;2.40;;;0.90;;
15643;SDS011;7921;43.586;1.408;2024-02-26T08:00:25;1.57;;;0.87;;
15643;SDS011;7921;43.586;1.408;2024-02-26T08:02:51;2.33;;;1.30;;
15643;SDS011;7921;43.586;1.408;2024-02-26T08:05:16;0.83;;;0.80;;
15643;SDS011;7921;43.586;1.408;2024-02-26T08:07:42;3.93;;;1.10;;
15643;SDS011;7921;43.586;1.408;2024-02-26T08:10:07;1.77;;;0.90;;
15643;SDS011;7921;43.586;1.408;2024-02-26T08:12:33;3.03;;;1.00;;
15643;SDS011;7921;43.586;1.408;2024-02-26T08:14:58;3.13;;;1.20;;
15643;SDS011;7921;43.586;1.408;2024-02-26T08:17:24;2.77;;;1.23;;
15643;SDS011;7921;43.586;1.408;2024-02-26T08:19:49;3.63;;;1.37;;
15643;SDS011;7921;43.586;1.408;2024-02-26T08:22:15;1.23;;;0.90;;
15643;SDS011;7921;43.586;1.408;2024-02-26T08:24:43;1.47;;;0.80;;
15643;SDS011;7921;43.586;1.408;2024-02-26T08:27:08;2.17;;;1.00;;
15643;SDS011;7921;43.586;1.408;2024-02-26T08:29:34;3.30;;;1.20;;
15643;SDS011;7921;43.586;1.408;2024-02-26T08:31:59;6.37;;;1.87;;
15643;SDS011;7921;43.586;1.408;2024-02-26T08:34:25;1.73;;;0.93;;
15643;SDS011;7921;43.586;1.408;2024-02-26T08:36:50;2.00;;;0.97;;
15643;SDS011;7921;43.586;1.408;2024-02-26T08:39:16;2.30;;;1.40;;
15643;SDS011;7921;43.586;1.408;2024-02-26T08:41:42;2.27;;;1.10;;
15643;SDS011;7921;43.586;1.408;2024-02-26T08:44:10;2.13;;;0.90;;
15643;SDS011;7921;43.586;1.408;2024-02-26T08:46:36;2.37;;;1.30;;
15643;SDS011;7921;43.586;1.408;2024-02-26T08:49:01;2.80;;;0.90;;
15643;SDS011;7921;43.586;1.408;2024-02-26T08:51:27;3.00;;;1.10;;
15643;SDS011;7921;43.586;1.408;2024-02-26T08:53:52;1.93;;;0.87;;
15643;SDS011;7921;43.586;1.408;2024-02-26T08:56:18;3.03;;;1.37;;
15643;SDS011;7921;43.586;1.408;2024-02-26T08:58:44;2.20;;;1.13;;
15643;SDS011;7921;43.586;1.408;2024-02-26T09:01:11;4.43;;;1.27;;
15643;SDS011;7921;43.586;1.408;2024-02-26T09:03:36;3.07;;;1.03;;
15643;SDS011;7921;43.586;1.408;2024-02-26T09:06:02;3.33;;;1.17;;
15643;SDS011;7921;43.586;1.408;2024-02-26T09:08:27;3.20;;;1.10;;
15643;SDS011;7921;43.586;1.408;2024-02-26T09:10:53;1.63;;;0.77;;
15643;SDS011;7921;43.586;1.408;2024-02-26T09:13:18;3.00;;;1.07;;
15643;SDS011;7921;43.586;1.408;2024-02-26T09:15:44;2.60;;;1.37;;
15643;SDS011;7921;43.586;1.408;2024-02-26T09:18:09;3.00;;;1.07;;
15643;SDS011;7921;43.586;1.408;2024-02-26T09:20:35;3.53;;;1.37;;
15643;SDS011;7921;43.586;1.408;2024-02-26T09:23:00;1.97;;;1.30;;
15643;SDS011;7921;43.586;1.408;2024-02-26T09:25:25;2.43;;;1.00;;
15643;SDS011;7921;43.586;1.408;2024-02-26T09:27:51;2.40;;;1.17;;
15643;SDS011;7921;43.586;1.408;2024-02-26T09:30:16;2.93;;;1.03;;
15643;SDS011;7921;43.586;1.408;2024-02-26T09:32:45;0.90;;;0.60;;
15643;SDS011;7921;43.586;1.408;2024-02-26T09:35:11;5.40;;;1.13;;
15643;SDS011;7921;43.586;1.408;2024-02-26T09:37:38;1.33;;;0.80;;
15643;SDS011;7921;43.586;1.408;2024-02-26T09:40:04;1.33;;;0.80;;
15643;SDS011;7921;43.586;1.408;2024-02-26T09:42:31;2.83;;;1.20;;
15643;SDS011;7921;43.586;1.408;2024-02-26T09:44:57;1.77;;;0.80;;
15643;SDS011;7921;43.586;1.408;2024-02-26T09:47:26;3.33;;;1.00;;
15643;SDS011;7921;43.586;1.408;2024-02-26T09:49:53;2.97;;;1.00;;
15643;SDS011;7921;43.586;1.408;2024-02-26T09:52:21;1.43;;;0.77;;
15643;SDS011;7921;43.586;1.408;2024-02-26T09:54:47;1.95;;;0.80;;
15643;SDS011;7921;43.586;1.408;2024-02-26T09:57:12;2.50;;;0.80;;
15643;SDS011;7921;43.586;1.408;2024-02-26T09:59:41;2.42;;;0.80;;
15643;SDS011;7921;43.586;1.408;2024-02-26T10:02:13;2.05;;;0.60;;
15643;SDS011;7921;43.586;1.408;2024-02-26T10:04:41;2.92;;;1.30;;
15643;SDS011;7921;43.586;1.408;2024-02-26T10:07:10;1.65;;;0.80;;
15643;SDS011;7921;43.586;1.408;2024-02-26T10:09:36;2.05;;;1.05;;
15643;SDS011;7921;43.586;1.408;2024-02-26T10:12:02;1.40;;;0.70;;
15643;SDS011;7921;43.586;1.408;2024-02-26T10:14:29;1.75;;;0.70;;
15643;SDS011;7921;43.586;1.408;2024-02-26T10:16:55;1.30;;;0.93;;
15643;SDS011;7921;43.586;1.408;2024-02-26T10:19:30;1.10;;;0.82;;
15643;SDS011;7921;43.586;1.408;2024-02-26T10:21:56;2.35;;;1.00;;
15643;SDS011;7921;43.586;1.408;2024-02-26T10:24:22;1.70;;;0.80;;
15643;SDS011;7921;43.586;1.408;2024-02-26T10:26:48;2.65;;;1.02;;
15643;SDS011;7921;43.586;1.408;2024-02-26T10:29:13;1.27;;;0.80;;
15643;SDS011;7921;43.586;1.408;2024-02-26T10:31:41;1.70;;;0.68;;
15643;SDS011;7921;43.586;1.408;2024-02-26T10:34:07;1.13;;;0.90;;
15643;SDS011;7921;43.586;1.408;2024-02-26T10:36:33;1.63;;;0.90;;
15643;SDS011;7921;43.586;1.408;2024-02-26T10:39:01;1.45;;;0.70;;
15643;SDS011;7921;43.586;1.408;2024-02-26T10:41:27;1.98;;;0.95;;
15643;SDS011;7921;43.586;1.408;2024-02-26T10:43:52;3.60;;;0.90;;
15643;SDS011;7921;43.586;1.408;2024-02-26T10:46:19;1.90;;;0.95;;
15643;SDS011;7921;43.586;1.408;2024-02-26T10:48:51;1.17;;;0.65;;
15643;SDS011;7921;43.586;1.408;2024-02-26T10:51:20;1.77;;;0.80;;
15643;SDS011;7921;43.586;1.408;2024-02-26T10:53:47;3.13;;;1.00;;
15643;SDS011;7921;43.586;1.408;2024-02-26T10:56:15;2.57;;;0.90;;
15643;SDS011;7921;43.586;1.408;2024-02-26T10:58:41;1.15;;;0.80;;
15643;SDS011;7921;43.586;1.408;2024-02-26T11:01:07;1.63;;;0.87;;
15643;SDS011;7921;43.586;1.408;2024-02-26T11:03:34;2.20;;;1.00;;
15643;SDS011;7921;43.586;1.408;2024-02-26T11:06:01;1.03;;;0.70;;
15643;SDS011;7921;43.586;1.408;2024-02-26T11:08:27;1.43;;;0.77;;
15643;SDS011;7921;43.586;1.408;2024-02-26T11:10:53;0.97;;;0.60;;
15643;SDS011;7921;43.586;1.408;2024-02-26T11:13:19;1.77;;;0.83;;
15643;SDS011;7921;43.586;1.408;2024-02-26T11:15:47;2.70;;;0.77;;
15643;SDS011;7921;43.586;1.408;2024-02-26T11:18:14;1.33;;;0.70;;
15643;SDS011;7921;43.586;1.408;2024-02-26T11:20:40;2.43;;;1.23;;
15643;SDS011;7921;43.586;1.408;2024-02-26T11:23:06;0.73;;;0.60;;
15643;SDS011;7921;43.586;1.408;2024-02-26T11:25:32;0.60;;;0.60;;
15643;SDS011;7921;43.586;1.408;2024-02-26T11:27:58;1.03;;;0.63;;
15643;SDS011;7921;43.586;1.408;2024-02-26T11:30:26;1.40;;;0.60;;
15643;SDS011;7921;43.586;1.408;2024-02-26T11:32:55;1.20;;;0.60;;
15643;SDS011;7921;43.586;1.408;2024-02-26T11:35:20;2.30;;;0.80;;
15643;SDS011;7921;43.586;1.408;2024-02-26T11:37:55;1.00;;;0.50;;
15643;SDS011;7921;43.586;1.408;2024-02-26T11:40:24;0.50;;;0.50;;
15643;SDS011;7921;43.586;1.408;2024-02-26T11:42:51;0.63;;;0.63;;
15643;SDS011;7921;43.586;1.408;2024-02-26T11:48:13;1.10;;;0.70;;
15643;SDS011;7921;43.586;1.408;2024-02-26T11:50:54;1.07;;;0.63;;
15643;SDS011;7921;43.586;1.408;2024-02-26T11:53:32;2.50;;;0.87;;
15643;SDS011;7921;43.586;1.408;2024-02-26T11:59:10;0.63;;;0.60;;
15643;SDS011;7921;43.586;1.408;2024-02-26T12:01:37;0.80;;;0.80;;
15643;SDS011;7921;43.586;1.408;2024-02-26T12:06:51;3.10;;;1.37;;
15643;SDS011;7921;43.586;1.408;2024-02-26T12:09:38;1.13;;;0.80;;
15643;SDS011;7921;43.586;1.408;2024-02-26T12:12:10;1.27;;;0.63;;
15643;SDS011;7921;43.586;1.408;2024-02-26T12:14:40;0.83;;;0.60;;
15643;SDS011;7921;43.586;1.408;2024-02-26T12:17:18;1.10;;;0.60;;
15643;SDS011;7921;43.586;1.408;2024-02-26T12:19:47;1.23;;;1.13;;
15643;SDS011;7921;43.586;1.408;2024-02-26T12:22:12;0.90;;;0.70;;
15643;SDS011;7921;43.586;1.408;2024-02-26T12:24:39;1.47;;;0.43;;
15643;SDS011;7921;43.586;1.408;2024-02-26T12:27:04;1.43;;;0.70;;
15643;SDS011;7921;43.586;1.408;2024-02-26T12:29:29;1.53;;;0.50;;
15643;SDS011;7921;43.586;1.408;2024-02-26T12:31:55;0.60;;;0.60;;
15643;SDS011;7921;43.586;1.408;2024-02-26T12:34:20;0.67;;;0.67;;
15643;SDS011;7921;43.586;1.408;2024-02-26T12:36:45;1.33;;;0.77;;
15643;SDS011;7921;43.586;1.408;2024-02-26T12:39:11;0.90;;;0.50;;
15643;SDS011;7921;43.586;1.408;2024-02-26T12:41:37;1.23;;;0.70;;
15643;SDS011;7921;43.586;1.408;2024-02-26T12:44:03;0.80;;;0.60;;
15643;SDS011;7921;43.586;1.408;2024-02-26T12:46:28;1.50;;;0.60;;
15643;SDS011;7921;43.586;1.408;2024-02-26T12:48:57;0.97;;;0.60;;
15643;SDS011;7921;43.586;1.408;2024-02-26T12:51:23;1.67;;;0.50;;
15643;SDS011;7921;43.586;1.408;2024-02-26T12:53:50;0.87;;;0.60;;
15643;SDS011;7921;43.586;1.408;2024-02-26T12:56:17;1.90;;;0.50;;
15643;SDS011;7921;43.586;1.408;2024-02-26T12:58:42;0.80;;;0.67;;
15643;SDS011;7921;43.586;1.408;2024-02-26T13:01:08;2.30;;;0.60;;
15643;SDS011;7921;43.586;1.408;2024-02-26T13:03:39;0.70;;;0.50;;
15643;SDS011;7921;43.586;1.408;2024-02-26T13:06:05;0.53;;;0.50;;
15643;SDS011;7921;43.586;1.408;2024-02-26T13:08:31;1.40;;;0.60;;
15643;SDS011;7921;43.586;1.408;2024-02-26T13:10:58;0.80;;;0.50;;
15643;SDS011;7921;43.586;1.408;2024-02-26T13:13:24;0.53;;;0.40;;
15643;SDS011;7921;43.586;1.408;2024-02-26T13:15:49;1.20;;;0.67;;
15643;SDS011;7921;43.586;1.408;2024-02-26T13:18:15;0.57;;;0.50;;
15643;SDS011;7921;43.586;1.408;2024-02-26T13:20:40;0.50;;;0.50;;
15643;SDS011;7921;43.586;1.408;2024-02-26T13:23:07;1.33;;;0.70;;
15643;SDS011;7921;43.586;1.408;2024-02-26T13:25:33;0.77;;;0.60;;
15643;SDS011;7921;43.586;1.408;2024-02-26T13:28:16;1.30;;;0.60;;
15643;SDS011;7921;43.586;1.408;2024-02-26T13:30:54;0.40;;;0.40;;
15643;SDS011;7921;43.586;1.408;2024-02-26T13:33:23;1.77;;;0.90;;
15643;SDS011;7921;43.586;1.408;2024-02-26T13:35:49;1.07;;;0.60;;
15643;SDS011;7921;43.586;1.408;2024-02-26T13:38:15;0.83;;;0.50;;
15643;SDS011;7921;43.586;1.408;2024-02-26T13:40:40;0.87;;;0.50;;
15643;SDS011;7921;43.586;1.408;2024-02-26T13:43:06;0.80;;;0.60;;
15643;SDS011;7921;43.586;1.408;2024-02-26T13:45:35;0.50;;;0.50;;
15643;SDS011;7921;43.586;1.408;2024-02-26T13:48:01;0.93;;;0.67;;
15643;SDS011;7921;43.586;1.408;2024-02-26T13:50:28;0.70;;;0.60;;
15643;SDS011;7921;43.586;1.408;2024-02-26T13:52:53;0.70;;;0.47;;
15643;SDS011;7921;43.586;1.408;2024-02-26T13:55:20;1.27;;;0.50;;
15643;SDS011;7921;43.586;1.408;2024-02-26T13:57:47;0.50;;;0.50;;
15643;SDS011;7921;43.586;1.408;2024-02-26T14:00:13;0.77;;;0.50;;
15643;SDS011;7921;43.586;1.408;2024-02-26T14:02:39;0.90;;;0.50;;
15643;SDS011;7921;43.586;1.408;2024-02-26T14:05:04;0.87;;;0.50;;
15643;SDS011;7921;43.586;1.408;2024-02-26T14:07:30;1.23;;;0.60;;
15643;SDS011;7921;43.586;1.408;2024-02-26T14:09:57;1.00;;;0.70;;
15643;SDS011;7921;43.586;1.408;2024-02-26T14:12:23;0.50;;;0.50;;
15643;SDS011;7921;43.586;1.408;2024-02-26T14:14:48;1.13;;;1.00;;
15643;SDS011;7921;43.586;1.408;2024-02-26T14:17:14;0.60;;;0.60;;
15643;SDS011;7921;43.586;1.408;2024-02-26T14:19:40;0.47;;;0.43;;
15643;SDS011;7921;43.586;1.408;2024-02-26T14:22:10;0.77;;;0.60;;
15643;SDS011;7921;43.586;1.408;2024-02-26T14:24:36;0.40;;;0.40;;
15643;SDS011;7921;43.586;1.408;2024-02-26T14:27:01;0.40;;;0.40;;
15643;SDS011;7921;43.586;1.408;2024-02-26T14:29:27;1.03;;;0.50;;
15643;SDS011;7921;43.586;1.408;2024-02-26T14:31:53;0.30;;;0.30;;
15643;SDS011;7921;43.586;1.408;2024-02-26T14:34:18;1.20;;;0.50;;
15643;SDS011;7921;43.586;1.408;2024-02-26T14:36:44;0.80;;;0.50;;
15643;SDS011;7921;43.586;1.408;2024-02-26T14:39:09;0.50;;;0.50;;
15643;SDS011;7921;43.586;1.408;2024-02-26T14:41:37;0.60;;;0.60;;
15643;SDS011;7921;43.586;1.408;2024-02-26T14:44:03;0.40;;;0.40;;
15643;SDS011;7921;43.586;1.408;2024-02-26T14:46:28;0.50;;;0.50;;
15643;SDS011;7921;43.586;1.408;2024-02-26T14:48:54;0.60;;;0.40;;
15643;SDS011;7921;43.586;1.408;2024-02-26T14:51:20;0.50;;;0.50;;
15643;SDS011;7921;43.586;1.408;2024-02-26T14:53:45;0.33;;;0.33;;
15643;SDS011;7921;43.586;1.408;2024-02-26T14:56:10;0.50;;;0.50;;
15643;SDS011;7921;43.586;1.408;2024-02-26T14:58:36;0.40;;;0.40;;
15643;SDS011;7921;43.586;1.408;2024-02-26T15:01:03;0.63;;;0.40;;
15643;SDS011;7921;43.586;1.408;2024-02-26T15:03:28;0.83;;;0.40;;